createdAt,value
2019-06-20T00:00:27.023Z,3.27
2019-06-20T00:02:55.367Z,3.15
2019-06-20T00:05:24.142Z,3.00
2019-06-20T00:07:52.417Z,3.17
2019-06-20T00:10:20.712Z,3.22
2019-06-20T00:12:59.901Z,3.60
2019-06-20T00:15:19.107Z,3.05
2019-06-20T00:17:47.350Z,3.35
2019-06-20T00:20:15.747Z,3.55
2019-06-20T00:22:44.060Z,3.20
2019-06-20T00:25:12.453Z,3.55
2019-06-20T00:27:40.682Z,3.15
2019-06-20T00:30:09.358Z,3.50
2019-06-20T00:32:37.640Z,3.60
2019-06-20T00:35:09.372Z,3.12
2019-06-20T00:37:37.659Z,3.10
2019-06-20T00:40:07.602Z,3.37
2019-06-20T00:42:35.868Z,3.40
2019-06-20T00:45:05.313Z,4.42
2019-06-20T00:47:33.604Z,3.72
2019-06-20T00:50:01.897Z,3.50
2019-06-20T00:52:30.170Z,3.80
2019-06-20T00:54:58.511Z,3.30
2019-06-20T00:57:26.743Z,3.60
2019-06-20T00:59:55.035Z,3.25
2019-06-20T01:02:23.323Z,3.40
2019-06-20T01:04:51.609Z,3.22
2019-06-20T01:07:19.880Z,3.40
2019-06-20T01:09:48.206Z,3.33
2019-06-20T01:12:16.460Z,3.70
2019-06-20T01:14:45.996Z,3.42
2019-06-20T01:17:14.363Z,4.22
2019-06-20T01:19:42.676Z,3.87
2019-06-20T01:22:10.955Z,3.98
2019-06-20T01:24:39.267Z,4.10
2019-06-20T01:27:07.539Z,4.80
2019-06-20T01:29:35.835Z,4.80
2019-06-20T01:32:04.118Z,5.03
2019-06-20T01:34:32.415Z,5.30
2019-06-20T01:37:00.709Z,6.00
2019-06-20T01:39:28.995Z,6.40
2019-06-20T01:41:57.290Z,7.83
2019-06-20T01:44:25.579Z,8.23
2019-06-20T01:46:53.852Z,9.68
2019-06-20T01:49:42.069Z,10.20
2019-06-20T01:52:10.410Z,9.63
2019-06-20T01:54:39.010Z,10.08
2019-06-20T01:57:07.295Z,11.08
2019-06-20T01:59:35.659Z,10.98
2019-06-20T02:02:03.920Z,11.40
2019-06-20T02:04:32.220Z,11.90
2019-06-20T02:07:00.504Z,11.88
2019-06-20T02:09:28.805Z,10.63
2019-06-20T02:11:57.109Z,12.65
2019-06-20T02:14:25.408Z,12.95
2019-06-20T02:16:53.691Z,12.28
2019-06-20T02:19:21.994Z,13.83
2019-06-20T02:21:50.281Z,15.28
2019-06-20T02:24:18.602Z,16.23
2019-06-20T02:26:47.246Z,16.23
2019-06-20T02:29:15.646Z,15.15
2019-06-20T02:31:43.923Z,16.10
2019-06-20T02:34:12.231Z,15.95
2019-06-20T02:36:40.548Z,16.10
2019-06-20T02:39:08.883Z,15.88
2019-06-20T02:41:37.168Z,15.38
2019-06-20T02:44:06.043Z,15.28
2019-06-20T02:46:34.319Z,14.78
2019-06-20T02:49:02.626Z,15.40
2019-06-20T02:51:30.929Z,15.18
2019-06-20T02:53:59.229Z,15.53
2019-06-20T02:56:27.565Z,15.85
2019-06-20T02:58:55.862Z,15.55
2019-06-20T03:01:25.088Z,17.50
2019-06-20T03:03:53.396Z,16.67
2019-06-20T03:06:21.706Z,16.87
2019-06-20T03:08:50.006Z,17.92
2019-06-20T03:11:18.287Z,19.70
2019-06-20T03:13:46.637Z,19.20
2019-06-20T03:16:14.885Z,19.80
2019-06-20T03:18:43.193Z,19.62
2019-06-20T03:21:11.473Z,18.50
2019-06-20T03:23:39.818Z,20.05
2019-06-20T03:26:08.123Z,19.73
2019-06-20T03:28:36.428Z,19.50
2019-06-20T03:31:04.721Z,18.65
2019-06-20T03:33:33.132Z,18.10
2019-06-20T03:36:01.604Z,17.85
2019-06-20T03:38:29.997Z,17.02
2019-06-20T03:41:00.616Z,18.10
2019-06-20T03:43:28.919Z,16.75
2019-06-20T03:45:57.205Z,16.27
2019-06-20T03:48:25.499Z,15.30
2019-06-20T03:50:53.820Z,15.20
2019-06-20T03:53:22.103Z,15.32
2019-06-20T03:55:50.376Z,15.30
2019-06-20T03:58:18.683Z,15.20
2019-06-20T04:00:46.964Z,15.65
2019-06-20T04:03:15.862Z,17.37
2019-06-20T04:05:44.242Z,19.50
2019-06-20T04:08:13.170Z,22.45
2019-06-20T04:10:41.467Z,23.05
2019-06-20T04:13:09.779Z,25.40
2019-06-20T04:15:38.097Z,25.10
2019-06-20T04:18:06.386Z,27.80
2019-06-20T04:20:34.678Z,25.82
2019-06-20T04:23:03.557Z,27.00
2019-06-20T04:25:31.859Z,26.10
2019-06-20T04:28:00.142Z,26.60
2019-06-20T04:30:28.460Z,27.87
2019-06-20T04:32:57.025Z,27.27
2019-06-20T04:35:25.342Z,29.60
2019-06-20T04:37:53.630Z,28.00
2019-06-20T04:40:21.978Z,27.60
2019-06-20T04:42:50.237Z,26.52
2019-06-20T04:45:35.419Z,26.45
2019-06-20T04:48:03.444Z,25.77
2019-06-20T04:50:31.737Z,25.85
2019-06-20T04:53:00.036Z,25.68
2019-06-20T04:55:28.363Z,24.72
2019-06-20T04:57:56.681Z,25.23
2019-06-20T05:00:24.991Z,26.57
2019-06-20T05:02:53.256Z,25.92
2019-06-20T05:05:21.590Z,26.33
2019-06-20T05:07:49.874Z,25.37
2019-06-20T05:10:18.722Z,26.90
2019-06-20T05:12:46.998Z,26.80
2019-06-20T05:15:15.324Z,27.22
2019-06-20T05:17:43.599Z,27.42
2019-06-20T05:20:12.174Z,29.77
2019-06-20T05:22:40.447Z,29.02
2019-06-20T05:25:09.935Z,29.42
2019-06-20T05:27:38.235Z,31.00
2019-06-20T05:30:11.737Z,32.05
2019-06-20T05:32:40.037Z,32.33
2019-06-20T05:35:09.373Z,34.18
2019-06-20T05:37:37.726Z,35.52
2019-06-20T05:40:08.078Z,33.48
2019-06-20T05:42:36.362Z,34.35
2019-06-20T05:45:06.687Z,34.58
2019-06-20T05:47:35.221Z,36.30
2019-06-20T05:50:05.370Z,38.10
2019-06-20T05:52:33.658Z,38.15
2019-06-20T05:55:03.454Z,37.23
2019-06-20T05:57:31.750Z,39.55
2019-06-20T06:00:00.943Z,38.50
2019-06-20T06:02:29.218Z,39.67
2019-06-20T06:04:58.126Z,38.73
2019-06-20T06:07:26.408Z,39.25
2019-06-20T06:09:54.712Z,39.63
2019-06-20T06:12:23.069Z,39.05
2019-06-20T06:14:51.381Z,39.18
2019-06-20T06:17:19.849Z,39.80
2019-06-20T06:19:49.884Z,38.55
2019-06-20T06:22:18.128Z,39.92
2019-06-20T06:24:46.424Z,38.00
2019-06-20T06:27:14.762Z,38.23
2019-06-20T06:29:43.070Z,39.53
2019-06-20T06:32:11.341Z,39.10
2019-06-20T06:34:39.632Z,38.40
2019-06-20T06:37:07.955Z,38.95
2019-06-20T06:39:36.308Z,37.88
2019-06-20T06:42:04.618Z,38.13
2019-06-20T06:44:32.905Z,37.08
2019-06-20T06:47:01.296Z,36.40
2019-06-20T06:49:29.588Z,37.30
2019-06-20T06:51:57.922Z,36.90
2019-06-20T06:54:26.406Z,35.95
2019-06-20T06:56:54.709Z,36.58
2019-06-20T06:59:22.997Z,37.75
2019-06-20T07:01:51.306Z,36.55
2019-06-20T07:04:19.605Z,37.03
2019-06-20T07:06:47.914Z,34.45
2019-06-20T07:09:16.199Z,34.83
2019-06-20T07:11:44.521Z,33.78
2019-06-20T07:14:12.830Z,34.53
2019-06-20T07:16:41.141Z,35.63
2019-06-20T07:19:09.420Z,34.23
2019-06-20T07:21:37.724Z,36.73
2019-06-20T07:24:06.073Z,34.00
2019-06-20T07:26:34.423Z,35.90
2019-06-20T07:29:02.701Z,34.75
2019-06-20T07:31:31.010Z,32.93
2019-06-20T07:33:59.307Z,31.30
2019-06-20T07:36:27.632Z,31.82
2019-06-20T07:38:56.523Z,31.62
2019-06-20T07:41:24.809Z,31.62
2019-06-20T07:43:53.230Z,27.70
2019-06-20T07:46:21.579Z,28.27
2019-06-20T07:48:49.891Z,27.48
2019-06-20T07:51:18.427Z,25.27
2019-06-20T07:53:46.765Z,24.45
2019-06-20T07:56:15.051Z,21.95
2019-06-20T07:58:43.385Z,21.25
2019-06-20T08:01:11.656Z,21.07
2019-06-20T08:03:39.973Z,20.48
2019-06-20T08:06:08.266Z,20.17
2019-06-20T08:08:36.573Z,21.57
2019-06-20T08:11:04.934Z,21.20
2019-06-20T08:13:33.243Z,21.42
2019-06-20T08:16:03.836Z,20.62
2019-06-20T08:18:31.544Z,21.55
2019-06-20T08:20:59.843Z,22.42
2019-06-20T08:23:28.148Z,22.22
2019-06-20T08:25:57.521Z,21.90
2019-06-20T08:28:26.460Z,22.10
2019-06-20T08:30:56.067Z,22.50
2019-06-20T08:33:24.788Z,22.45
2019-06-20T08:35:53.075Z,21.77
2019-06-20T08:38:21.399Z,21.65
2019-06-20T08:40:51.369Z,21.73
2019-06-20T08:43:19.670Z,22.37
2019-06-20T08:45:48.020Z,22.37
2019-06-20T08:48:16.325Z,22.35
2019-06-20T08:50:44.676Z,22.67
2019-06-20T08:53:12.995Z,22.00
2019-06-20T08:55:41.560Z,22.48
2019-06-20T08:58:09.940Z,21.17
2019-06-20T09:00:39.277Z,22.40
2019-06-20T09:03:07.761Z,21.73
2019-06-20T09:05:36.115Z,21.10
2019-06-20T09:08:05.731Z,19.95
2019-06-20T09:10:38.434Z,20.32
2019-06-20T09:13:07.044Z,19.48
2019-06-20T09:15:35.358Z,21.12
2019-06-20T09:18:03.640Z,20.17
2019-06-20T09:20:32.028Z,18.77
2019-06-20T09:23:01.107Z,20.25
2019-06-20T09:25:29.532Z,21.62
2019-06-20T09:27:58.668Z,21.40
2019-06-20T09:30:27.310Z,19.55
2019-06-20T09:32:55.630Z,18.32
2019-06-20T09:35:23.894Z,16.65
2019-06-20T09:37:53.618Z,17.00
2019-06-20T09:40:22.239Z,17.70
2019-06-20T09:42:51.786Z,17.45
2019-06-20T09:45:20.550Z,18.48
2019-06-20T09:47:50.428Z,18.20
2019-06-20T09:50:20.888Z,17.67
2019-06-20T09:52:51.142Z,17.50
2019-06-20T09:55:19.291Z,17.02
2019-06-20T09:57:49.228Z,17.23
2019-06-20T10:00:20.311Z,16.35
2019-06-20T10:02:50.296Z,17.85
2019-06-20T10:05:19.254Z,18.15
2019-06-20T10:07:48.680Z,16.15
2019-06-20T10:10:18.288Z,17.32
2019-06-20T10:12:47.855Z,17.00
2019-06-20T10:15:25.142Z,17.23
2019-06-20T10:17:54.500Z,18.85
2019-06-20T10:20:23.433Z,18.30
2019-06-20T10:22:53.042Z,17.70
2019-06-20T10:25:21.548Z,17.00
2019-06-20T10:27:51.262Z,18.45
2019-06-20T10:30:21.576Z,17.00
2019-06-20T10:32:51.015Z,17.42
2019-06-20T10:35:19.884Z,16.07
2019-06-20T10:37:48.459Z,16.73
2019-06-20T10:40:19.060Z,17.80
2019-06-20T10:42:48.152Z,17.42
2019-06-20T10:45:17.881Z,18.82
2019-06-20T10:47:47.284Z,19.30
2019-06-20T10:50:16.717Z,17.60
2019-06-20T10:52:45.310Z,16.82
2019-06-20T10:55:13.644Z,16.15
2019-06-20T10:57:42.967Z,16.80
2019-06-20T11:00:26.640Z,17.42
2019-06-20T11:02:43.887Z,17.82
2019-06-20T11:05:13.759Z,18.35
2019-06-20T11:07:42.541Z,16.45
2019-06-20T11:10:13.657Z,16.90
2019-06-20T11:12:47.915Z,17.32
2019-06-20T11:15:13.884Z,17.90
2019-06-20T11:17:42.203Z,17.37
2019-06-20T11:20:11.318Z,15.85
2019-06-20T11:22:40.217Z,14.30
2019-06-20T11:25:10.132Z,13.00
2019-06-20T11:27:38.757Z,14.80
2019-06-20T11:30:10.266Z,15.83
2019-06-20T11:36:07.208Z,15.78
2019-06-20T11:38:35.521Z,19.15
2019-06-20T11:41:04.574Z,19.17
2019-06-20T11:43:34.626Z,15.30
2019-06-20T11:46:02.903Z,18.60
2019-06-20T11:48:31.207Z,16.12
2019-06-20T11:50:59.507Z,17.20
2019-06-20T11:53:27.833Z,16.65
2019-06-20T11:55:56.122Z,14.53
2019-06-20T11:58:24.423Z,15.28
2019-06-20T12:01:03.550Z,15.53
2019-06-20T12:03:23.377Z,11.88
2019-06-20T12:05:51.658Z,13.78
2019-06-20T12:08:19.969Z,11.38
2019-06-20T12:10:49.417Z,12.15
2019-06-20T12:13:17.853Z,13.50
2019-06-20T12:15:46.682Z,12.85
2019-06-20T12:18:15.115Z,11.25
2019-06-20T12:20:44.499Z,10.25
2019-06-20T12:23:12.894Z,8.58
2019-06-20T12:25:42.573Z,9.23
2019-06-20T12:28:11.155Z,8.78
2019-06-20T12:30:40.160Z,8.75
2019-06-20T12:33:09.461Z,8.18
2019-06-20T12:35:38.063Z,7.72
2019-06-20T12:38:07.429Z,6.75
2019-06-20T12:40:35.706Z,7.28
2019-06-20T12:43:04.008Z,6.67
2019-06-20T12:45:32.587Z,8.18
2019-06-20T12:48:00.894Z,7.47
2019-06-20T12:50:30.748Z,7.85
2019-06-20T12:52:59.060Z,7.35
2019-06-20T12:55:27.355Z,7.87
2019-06-20T12:57:55.628Z,6.80
2019-06-20T13:00:24.187Z,6.75
2019-06-20T13:02:52.496Z,6.30
2019-06-20T13:05:22.577Z,7.22
2019-06-20T13:07:51.292Z,6.70
2019-06-20T13:10:19.972Z,7.83
2019-06-20T13:12:48.848Z,6.90
2019-06-20T13:15:19.927Z,6.35
2019-06-20T13:17:49.111Z,5.85
2019-06-20T13:20:18.758Z,6.83
2019-06-20T13:22:47.126Z,6.97
2019-06-20T13:25:15.687Z,7.00
2019-06-20T13:27:45.584Z,7.35
2019-06-20T13:30:14.417Z,7.80
2019-06-20T13:32:43.811Z,7.25
2019-06-20T13:35:14.445Z,7.40
2019-06-20T13:37:43.478Z,6.45
2019-06-20T13:40:15.910Z,6.72
2019-06-20T13:42:45.747Z,7.57
2019-06-20T13:45:22.319Z,7.25
2019-06-20T13:47:50.679Z,7.05
2019-06-20T13:50:19.608Z,7.12
2019-06-20T13:52:49.715Z,7.90
2019-06-20T13:55:17.915Z,7.40
2019-06-20T13:57:47.220Z,7.15
2019-06-20T14:00:17.436Z,6.60
2019-06-20T14:02:47.065Z,7.45
2019-06-20T14:05:16.052Z,6.97
2019-06-20T14:07:48.379Z,6.67
2019-06-20T14:10:15.083Z,7.05
2019-06-20T14:12:44.664Z,6.15
2019-06-20T14:15:13.305Z,7.30
2019-06-20T14:17:43.109Z,6.55
2019-06-20T14:20:13.489Z,6.83
2019-06-20T14:22:42.918Z,6.65
2019-06-20T14:25:11.337Z,6.17
2019-06-20T14:27:39.597Z,6.08
2019-06-20T14:30:09.249Z,5.83
2019-06-20T14:32:37.546Z,4.80
2019-06-20T14:35:06.905Z,4.22
2019-06-20T14:37:35.186Z,3.60
2019-06-20T14:40:05.567Z,4.28
2019-06-20T14:42:33.882Z,4.20
2019-06-20T14:45:02.238Z,4.40
2019-06-20T14:47:30.511Z,3.67
2019-06-20T14:49:58.816Z,4.35
2019-06-20T14:52:27.124Z,4.25
2019-06-20T14:54:55.708Z,4.30
2019-06-20T14:57:24.293Z,4.22
2019-06-20T14:59:53.028Z,4.78
2019-06-20T15:02:34.600Z,5.28
2019-06-20T15:04:54.285Z,5.10
2019-06-20T15:07:22.675Z,4.87
2019-06-20T15:09:51.354Z,4.97
2019-06-20T15:12:19.858Z,5.17
2019-06-20T15:14:49.683Z,5.42
2019-06-20T15:17:18.171Z,5.00
2019-06-20T15:19:47.761Z,5.40
2019-06-20T15:22:16.280Z,5.55
2019-06-20T15:24:46.754Z,5.47
2019-06-20T15:27:15.003Z,4.97
2019-06-20T15:29:43.308Z,4.83
2019-06-20T15:32:11.634Z,5.00
2019-06-20T15:34:39.915Z,5.03
2019-06-20T15:37:08.229Z,4.58
2019-06-20T15:39:36.599Z,4.53
2019-06-20T15:42:05.156Z,4.60
2019-06-20T15:44:33.432Z,4.62
2019-06-20T15:47:01.763Z,5.25
2019-06-20T15:49:30.025Z,5.15
2019-06-20T15:51:59.222Z,5.83
2019-06-20T15:54:27.598Z,5.80
2019-06-20T15:56:55.907Z,5.67
2019-06-20T15:59:24.183Z,5.55
2019-06-20T16:01:52.554Z,5.03
2019-06-20T16:04:21.122Z,5.00
2019-06-20T16:06:49.406Z,5.25
2019-06-20T16:09:17.702Z,5.75
2019-06-20T16:11:45.992Z,5.47
2019-06-20T16:14:17.787Z,5.60
2019-06-20T16:16:44.305Z,6.70
2019-06-20T16:19:12.609Z,6.50
2019-06-20T16:21:40.889Z,6.55
2019-06-20T16:24:12.562Z,6.20
2019-06-20T16:26:39.285Z,6.42
2019-06-20T16:29:07.599Z,6.42
2019-06-20T16:31:35.871Z,6.05
2019-06-20T16:34:04.260Z,6.30
2019-06-20T16:36:32.548Z,5.97
2019-06-20T16:39:00.854Z,6.30
2019-06-20T16:41:29.141Z,6.45
2019-06-20T16:43:57.452Z,5.55
2019-06-20T16:46:25.746Z,5.80
2019-06-20T16:48:54.035Z,6.22
2019-06-20T16:51:22.321Z,6.28
2019-06-20T16:53:50.668Z,6.60
2019-06-20T16:56:18.949Z,6.75
2019-06-20T16:58:47.329Z,7.00
2019-06-20T17:01:15.956Z,6.90
2019-06-20T17:03:44.233Z,6.80
2019-06-20T17:06:12.521Z,7.22
2019-06-20T17:08:41.274Z,6.80
2019-06-20T17:11:09.543Z,7.37
2019-06-20T17:13:37.858Z,7.97
2019-06-20T17:16:06.148Z,8.05
2019-06-20T17:18:34.472Z,7.97
2019-06-20T17:21:02.753Z,7.90
2019-06-20T17:23:31.133Z,8.15
2019-06-20T17:26:01.440Z,8.05
2019-06-20T17:28:29.454Z,7.53
2019-06-20T17:30:57.733Z,7.72
2019-06-20T17:33:26.051Z,8.40
2019-06-20T17:35:54.907Z,7.95
2019-06-20T17:38:23.193Z,5.42
2019-06-20T17:40:51.534Z,5.22
2019-06-20T17:43:19.847Z,4.60
2019-06-20T17:45:48.107Z,4.00
2019-06-20T17:48:16.434Z,3.62
2019-06-20T17:50:44.721Z,4.90
2019-06-20T17:53:13.059Z,4.33
2019-06-20T17:55:41.618Z,4.35
2019-06-20T17:58:09.906Z,4.37
2019-06-20T18:00:38.274Z,4.40
2019-06-20T18:03:06.567Z,4.60
2019-06-20T18:05:34.877Z,4.75
2019-06-20T18:08:14.534Z,4.12
2019-06-20T18:10:33.284Z,4.50
2019-06-20T18:13:01.566Z,4.60
2019-06-20T18:15:33.641Z,4.10
2019-06-20T18:17:59.892Z,4.72
2019-06-20T18:20:28.196Z,4.53
2019-06-20T18:22:56.503Z,4.12
2019-06-20T18:25:24.818Z,4.37
2019-06-20T18:27:53.133Z,4.58
2019-06-20T18:30:24.595Z,4.35
2019-06-20T18:32:52.876Z,4.62
2019-06-20T18:35:21.183Z,4.22
2019-06-20T18:37:49.476Z,4.80
2019-06-20T18:40:17.821Z,5.53
2019-06-20T18:42:46.140Z,5.03
2019-06-20T18:45:14.503Z,5.40
2019-06-20T18:47:42.803Z,5.67
2019-06-20T18:50:11.382Z,6.15
2019-06-20T18:52:51.795Z,6.47
2019-06-20T18:55:09.804Z,6.87
2019-06-20T18:57:38.108Z,7.20
2019-06-20T19:00:11.099Z,8.15
2019-06-20T19:02:39.368Z,7.75
2019-06-20T19:05:09.023Z,8.10
2019-06-20T19:07:37.315Z,7.70
2019-06-20T19:10:08.848Z,9.03
2019-06-20T19:12:37.104Z,9.38
2019-06-20T19:15:09.009Z,8.93
2019-06-20T19:17:37.308Z,8.78
2019-06-20T19:20:06.555Z,9.10
2019-06-20T19:22:34.897Z,8.70
2019-06-20T19:25:05.085Z,9.00
2019-06-20T19:27:45.794Z,8.73
2019-06-20T19:30:06.230Z,9.18
2019-06-20T19:32:34.592Z,8.50
2019-06-20T19:35:03.745Z,9.25
2019-06-20T19:37:32.058Z,8.33
2019-06-20T19:40:00.362Z,8.48
2019-06-20T19:42:28.678Z,8.58
2019-06-20T19:44:56.970Z,8.63
2019-06-20T19:47:25.281Z,7.97
2019-06-20T19:49:53.569Z,8.05
2019-06-20T19:52:21.869Z,7.58
2019-06-20T19:54:50.162Z,7.62
2019-06-20T19:57:18.473Z,7.50
2019-06-20T19:59:46.837Z,8.30
2019-06-20T20:02:15.164Z,9.03
2019-06-20T20:04:43.449Z,9.03
2019-06-20T20:07:11.773Z,8.83
2019-06-20T20:09:40.304Z,8.58
2019-06-20T20:12:08.625Z,8.45
2019-06-20T20:14:36.915Z,8.65
2019-06-20T20:17:05.228Z,8.10
2019-06-20T20:19:33.524Z,8.25
2019-06-20T20:22:01.845Z,7.92
2019-06-20T20:24:30.113Z,7.78
2019-06-20T20:26:58.440Z,8.40
2019-06-20T20:29:28.282Z,8.18
2019-06-20T20:31:56.604Z,7.87
2019-06-20T20:34:24.923Z,7.95
2019-06-20T20:36:53.210Z,8.63
2019-06-20T20:39:21.504Z,8.13
2019-06-20T20:41:50.097Z,8.45
2019-06-20T20:44:18.385Z,8.90
2019-06-20T20:46:46.701Z,8.43
2019-06-20T20:49:14.971Z,7.65
2019-06-20T20:51:43.284Z,5.75
2019-06-20T20:54:11.570Z,5.12
2019-06-20T20:56:39.853Z,4.45
2019-06-20T20:59:08.179Z,4.90
2019-06-20T21:01:36.482Z,4.17
2019-06-20T21:04:04.799Z,4.22
2019-06-20T21:06:33.073Z,4.42
2019-06-20T21:09:01.383Z,4.37
2019-06-20T21:11:29.658Z,3.42
2019-06-20T21:13:57.970Z,3.80
2019-06-20T21:16:26.263Z,3.87
2019-06-20T21:18:54.576Z,4.40
2019-06-20T21:21:22.859Z,3.60
2019-06-20T21:23:51.170Z,3.80
2019-06-20T21:26:19.450Z,4.28
2019-06-20T21:28:47.762Z,3.90
2019-06-20T21:31:16.050Z,4.30
2019-06-20T21:33:44.373Z,4.03
2019-06-20T21:36:12.952Z,4.78
2019-06-20T21:38:41.266Z,4.37
2019-06-20T21:41:09.549Z,4.22
2019-06-20T21:43:37.856Z,3.95
2019-06-20T21:46:06.983Z,3.87
2019-06-20T21:48:35.358Z,4.12
2019-06-20T21:51:03.895Z,3.80
2019-06-20T21:53:32.400Z,4.42
2019-06-20T21:56:00.615Z,4.70
2019-06-20T21:58:28.935Z,4.05
2019-06-20T22:00:58.653Z,4.60
2019-06-20T22:03:26.976Z,4.10
2019-06-20T22:05:55.248Z,4.40
2019-06-20T22:08:23.558Z,4.70
2019-06-20T22:10:51.847Z,4.80
2019-06-20T22:13:20.157Z,4.85
2019-06-20T22:15:48.455Z,4.85
2019-06-20T22:18:16.812Z,4.65
2019-06-20T22:20:45.091Z,5.00
2019-06-20T22:23:13.402Z,5.08
2019-06-20T22:25:41.703Z,4.83
2019-06-20T22:28:10.003Z,5.30
2019-06-20T22:30:50.059Z,4.90
2019-06-20T22:33:18.412Z,5.37
2019-06-20T22:35:46.720Z,5.65
2019-06-20T22:38:15.002Z,5.47
2019-06-20T22:40:43.474Z,5.55
2019-06-20T22:43:11.720Z,4.75
2019-06-20T22:45:41.721Z,5.28
2019-06-20T22:48:10.437Z,5.53
2019-06-20T22:50:38.736Z,5.25
2019-06-20T22:53:07.029Z,5.92
2019-06-20T22:55:35.760Z,5.17
2019-06-20T22:58:05.197Z,5.80
2019-06-20T23:00:33.575Z,5.53
2019-06-20T23:03:01.855Z,5.80
2019-06-20T23:05:30.162Z,6.30
2019-06-20T23:07:58.463Z,7.08
2019-06-20T23:10:26.777Z,7.08
2019-06-20T23:12:55.061Z,7.25
2019-06-20T23:15:23.745Z,6.83
2019-06-20T23:17:52.046Z,7.08
2019-06-20T23:20:20.599Z,7.30
2019-06-20T23:22:48.965Z,7.72
2019-06-20T23:25:17.683Z,7.72
2019-06-20T23:27:45.955Z,8.00
2019-06-20T23:30:15.013Z,7.05
2019-06-20T23:32:43.291Z,7.12
2019-06-20T23:35:11.675Z,6.75
2019-06-20T23:37:39.950Z,7.80
2019-06-20T23:40:10.282Z,7.50
2019-06-20T23:42:40.325Z,7.80
2019-06-20T23:45:09.590Z,7.78
2019-06-20T23:47:37.862Z,8.53
2019-06-20T23:50:06.987Z,8.33
2019-06-20T23:52:36.921Z,8.35
2019-06-20T23:55:06.756Z,8.38
2019-06-20T23:57:35.123Z,8.08
